TAX977 LEBL-EDDH
Flight info
| Callsign | TAX977 |
|---|---|
| Flight time | N/A |
| Altitude | 30000 |
| Route | DALIN DCT PIVUS DCT DIBER/N0447F360 DCT ADITA DCT MAXIR DCT LUSOL DCT BODRU DCT OKTET DCT IRMAR DCT KINES DCT VANAS DCT MOBLO DCT UBIMA DCT SOSAL DCT KORED DCT BERSU N871 DITON/N0449F370 DCT LOKTA DCT TEDGO DCT HAREM DCT LOHRE DCT ELNAT/N0449F360 P605 NOLGO NOLGO6A |
| Aircraft | A320/M-SDE3FGHIRWY/LB1 |
Departure
| Time | N/A |
|---|---|
| Airport | Josep Tarradellas Barcelona-El Prat Airport (LEBL) |
Arrival
| Time | 2026-05-06 14:11 |
|---|---|
| Airport | Hamburg Helmut Schmidt Airport (EDDH) |
| Time | Latitude | Longitude | Altitude | Speed | Heading |
|---|---|---|---|---|---|
| 2026-05-06 12:08 | 40.95116 | 2.26209 | 15083 ft | 398 kts | 81° |
| 2026-05-06 12:08 | 40.95910 | 2.29743 | 15603 ft | 403 kts | 64° |
| 2026-05-06 12:09 | 40.97448 | 2.32860 | 16104 ft | 407 kts | 46° |
| 2026-05-06 12:09 | 40.99415 | 2.35514 | 16602 ft | 412 kts | 43° |
| 2026-05-06 12:09 | 41.01459 | 2.38217 | 17117 ft | 418 kts | 43° |
| 2026-05-06 12:09 | 41.03536 | 2.40964 | 17640 ft | 425 kts | 43° |
| 2026-05-06 12:10 | 41.05638 | 2.43752 | 18129 ft | 430 kts | 43° |
| 2026-05-06 12:10 | 41.07760 | 2.46584 | 18564 ft | 436 kts | 43° |
| 2026-05-06 12:10 | 41.09900 | 2.49456 | 19045 ft | 440 kts | 43° |
| 2026-05-06 12:10 | 41.12058 | 2.52362 | 19523 ft | 443 kts | 43° |
| 2026-05-06 12:11 | 41.14229 | 2.55284 | 20014 ft | 446 kts | 43° |
| 2026-05-06 12:11 | 41.16419 | 2.58230 | 20493 ft | 450 kts | 43° |
| 2026-05-06 12:11 | 41.18623 | 2.61193 | 20955 ft | 453 kts | 43° |
| 2026-05-06 12:11 | 41.20846 | 2.64184 | 21412 ft | 456 kts | 43° |
| 2026-05-06 12:12 | 41.23085 | 2.67199 | 21858 ft | 459 kts | 43° |
| 2026-05-06 12:12 | 41.25345 | 2.70244 | 22279 ft | 463 kts | 44° |
| 2026-05-06 12:12 | 41.27614 | 2.73308 | 22715 ft | 467 kts | 44° |
| 2026-05-06 12:12 | 41.29901 | 2.76399 | 23149 ft | 470 kts | 44° |
| 2026-05-06 12:13 | 41.32167 | 2.79464 | 23594 ft | 473 kts | 44° |
| 2026-05-06 12:13 | 41.34485 | 2.82602 | 23922 ft | 477 kts | 44° |
| 2026-05-06 12:13 | 41.36821 | 2.85763 | 24277 ft | 480 kts | 44° |
| 2026-05-06 12:13 | 41.39170 | 2.88946 | 24621 ft | 482 kts | 44° |
| 2026-05-06 12:14 | 41.41526 | 2.92147 | 24965 ft | 485 kts | 44° |
| 2026-05-06 12:14 | 41.43892 | 2.95371 | 25306 ft | 487 kts | 44° |
| 2026-05-06 12:14 | 41.46269 | 2.98608 | 25644 ft | 490 kts | 44° |
| 2026-05-06 12:14 | 41.48658 | 3.01869 | 25978 ft | 492 kts | 44° |
| 2026-05-06 12:15 | 41.51064 | 3.05158 | 26315 ft | 495 kts | 44° |
| 2026-05-06 12:15 | 41.53445 | 3.08414 | 26627 ft | 498 kts | 44° |
| 2026-05-06 12:15 | 41.55880 | 3.11741 | 26930 ft | 501 kts | 44° |
| 2026-05-06 12:15 | 41.58320 | 3.15074 | 27251 ft | 504 kts | 44° |
| 2026-05-06 12:16 | 41.60782 | 3.18441 | 27558 ft | 506 kts | 44° |
| 2026-05-06 12:16 | 41.63244 | 3.21811 | 27864 ft | 509 kts | 44° |
| 2026-05-06 12:16 | 41.65724 | 3.25215 | 28157 ft | 511 kts | 44° |
| 2026-05-06 12:16 | 41.68215 | 3.28645 | 28446 ft | 513 kts | 44° |
| 2026-05-06 12:17 | 41.70699 | 3.32103 | 28724 ft | 516 kts | 46° |
| 2026-05-06 12:17 | 41.72911 | 3.35835 | 29026 ft | 519 kts | 55° |
| 2026-05-06 12:17 | 41.74764 | 3.39995 | 29281 ft | 521 kts | 64° |
| 2026-05-06 12:17 | 41.76271 | 3.44432 | 29597 ft | 522 kts | 67° |
| 2026-05-06 12:18 | 41.77737 | 3.48885 | 29915 ft | 522 kts | 67° |
| 2026-05-06 12:18 | 41.79202 | 3.53319 | 29974 ft | 518 kts | 67° |
| 2026-05-06 12:18 | 41.82121 | 3.62121 | 29977 ft | 514 kts | 67° |
| 2026-05-06 12:19 | 41.85006 | 3.70837 | 29971 ft | 514 kts | 67° |
| 2026-05-06 12:19 | 41.87896 | 3.79614 | 29978 ft | 514 kts | 67° |
| 2026-05-06 12:20 | 41.90778 | 3.88403 | 29976 ft | 514 kts | 68° |
| 2026-05-06 12:20 | 41.93644 | 3.97188 | 30004 ft | 514 kts | 68° |
| 2026-05-06 12:21 | 41.96518 | 4.06014 | 29976 ft | 515 kts | 68° |
| 2026-05-06 12:21 | 41.99383 | 4.14824 | 29968 ft | 515 kts | 68° |
| 2026-05-06 12:22 | 42.02238 | 4.23653 | 29941 ft | 515 kts | 68° |
| 2026-05-06 12:22 | 42.05077 | 4.32481 | 29952 ft | 514 kts | 68° |
| 2026-05-06 12:23 | 42.08435 | 4.40916 | 29961 ft | 515 kts | 54° |
| 2026-05-06 12:23 | 42.13335 | 4.47911 | 29991 ft | 513 kts | 39° |
| 2026-05-06 12:24 | 42.18680 | 4.54305 | 29969 ft | 514 kts | 40° |
| 2026-05-06 12:24 | 42.24005 | 4.60761 | 29938 ft | 514 kts | 40° |
| 2026-05-06 12:25 | 42.29331 | 4.67227 | 29945 ft | 515 kts | 40° |
| 2026-05-06 12:25 | 42.34664 | 4.73681 | 29965 ft | 516 kts | 40° |
| 2026-05-06 12:26 | 42.39982 | 4.80130 | 29956 ft | 516 kts | 40° |
| 2026-05-06 12:26 | 42.45327 | 4.86641 | 29956 ft | 516 kts | 40° |
| 2026-05-06 12:27 | 42.50682 | 4.93182 | 29956 ft | 516 kts | 40° |
| 2026-05-06 12:27 | 42.56013 | 4.99712 | 29945 ft | 517 kts | 41° |
| 2026-05-06 12:28 | 42.61355 | 5.06270 | 29947 ft | 518 kts | 41° |
| 2026-05-06 12:28 | 42.66663 | 5.12806 | 29949 ft | 518 kts | 41° |
| 2026-05-06 12:29 | 42.72005 | 5.19390 | 29943 ft | 518 kts | 41° |
| 2026-05-06 12:29 | 42.77347 | 5.25980 | 29944 ft | 518 kts | 41° |
| 2026-05-06 12:30 | 42.82682 | 5.32583 | 29948 ft | 518 kts | 41° |
| 2026-05-06 12:30 | 42.87120 | 5.38097 | 29934 ft | 520 kts | 41° |
| 2026-05-06 12:31 | 42.92468 | 5.44754 | 29971 ft | 520 kts | 41° |
| 2026-05-06 12:31 | 42.97812 | 5.51424 | 29958 ft | 520 kts | 41° |
| 2026-05-06 12:32 | 43.03159 | 5.58107 | 29950 ft | 520 kts | 41° |
| 2026-05-06 12:32 | 43.08502 | 5.64798 | 29938 ft | 520 kts | 41° |
| 2026-05-06 12:33 | 43.13832 | 5.71494 | 29905 ft | 521 kts | 42° |
| 2026-05-06 12:33 | 43.19163 | 5.78213 | 29912 ft | 521 kts | 42° |
| 2026-05-06 12:34 | 43.24489 | 5.84949 | 29910 ft | 521 kts | 42° |
| 2026-05-06 12:34 | 43.29825 | 5.91699 | 29939 ft | 521 kts | 42° |
| 2026-05-06 12:35 | 43.35244 | 5.98286 | 29913 ft | 520 kts | 34° |
| 2026-05-06 12:35 | 43.41561 | 6.02923 | 29901 ft | 512 kts | 15° |
| 2026-05-06 12:36 | 43.48383 | 6.04950 | 29925 ft | 500 kts | 358° |
| 2026-05-06 12:36 | 43.55332 | 6.05632 | 29901 ft | 500 kts | 358° |
| 2026-05-06 12:37 | 43.62282 | 6.06329 | 29883 ft | 501 kts | 358° |
| 2026-05-06 12:37 | 43.69238 | 6.07040 | 29900 ft | 501 kts | 358° |
| 2026-05-06 12:38 | 43.76181 | 6.08167 | 29902 ft | 509 kts | 8° |
| 2026-05-06 12:38 | 43.82846 | 6.11705 | 29868 ft | 517 kts | 24° |
| 2026-05-06 12:39 | 43.89295 | 6.16138 | 29902 ft | 517 kts | 23° |
| 2026-05-06 12:39 | 43.95753 | 6.20534 | 29901 ft | 518 kts | 23° |
| 2026-05-06 12:40 | 44.02224 | 6.24943 | 29885 ft | 518 kts | 23° |
| 2026-05-06 12:40 | 44.08685 | 6.29379 | 29921 ft | 518 kts | 23° |
| 2026-05-06 12:41 | 44.15142 | 6.33833 | 29910 ft | 518 kts | 23° |
| 2026-05-06 12:41 | 44.21601 | 6.38285 | 29908 ft | 518 kts | 23° |
| 2026-05-06 12:42 | 44.28063 | 6.42750 | 29927 ft | 517 kts | 24° |
| 2026-05-06 12:42 | 44.34514 | 6.47218 | 29860 ft | 517 kts | 24° |
| 2026-05-06 12:43 | 44.40959 | 6.51697 | 29881 ft | 518 kts | 24° |
| 2026-05-06 12:43 | 44.47365 | 6.56163 | 29893 ft | 518 kts | 24° |
| 2026-05-06 12:44 | 44.53825 | 6.60662 | 29893 ft | 519 kts | 24° |
| 2026-05-06 12:44 | 44.60279 | 6.65171 | 29884 ft | 518 kts | 24° |
| 2026-05-06 12:45 | 44.66725 | 6.69689 | 29865 ft | 518 kts | 24° |
| 2026-05-06 12:46 | 44.76452 | 6.76298 | 29857 ft | 515 kts | 17° |
| 2026-05-06 12:46 | 44.83365 | 6.78494 | 29880 ft | 505 kts | 359° |
| 2026-05-06 12:47 | 44.90307 | 6.78375 | 29867 ft | 497 kts | 351° |
| 2026-05-06 12:47 | 44.97222 | 6.77915 | 29867 ft | 497 kts | 351° |
| 2026-05-06 12:48 | 45.04125 | 6.77456 | 29880 ft | 496 kts | 352° |
| 2026-05-06 12:48 | 45.11023 | 6.76990 | 29888 ft | 497 kts | 352° |
| 2026-05-06 12:49 | 45.17928 | 6.76537 | 29889 ft | 496 kts | 352° |
| 2026-05-06 12:49 | 45.24822 | 6.76082 | 29915 ft | 496 kts | 352° |
| 2026-05-06 12:50 | 45.31720 | 6.75623 | 29899 ft | 496 kts | 352° |
| 2026-05-06 12:50 | 45.38616 | 6.75154 | 29912 ft | 495 kts | 352° |
| 2026-05-06 12:51 | 45.45523 | 6.74694 | 29899 ft | 496 kts | 352° |
| 2026-05-06 12:51 | 45.52379 | 6.74236 | 29907 ft | 497 kts | 352° |
| 2026-05-06 12:52 | 45.59274 | 6.73755 | 29932 ft | 496 kts | 352° |
| 2026-05-06 12:52 | 45.66185 | 6.73282 | 29944 ft | 497 kts | 352° |
| 2026-05-06 12:53 | 45.73088 | 6.72810 | 29956 ft | 497 kts | 352° |
| 2026-05-06 12:53 | 45.79989 | 6.72331 | 29970 ft | 497 kts | 352° |
| 2026-05-06 12:54 | 45.86902 | 6.71855 | 29967 ft | 497 kts | 352° |
| 2026-05-06 12:54 | 45.93801 | 6.71385 | 29977 ft | 496 kts | 352° |
| 2026-05-06 12:55 | 46.00657 | 6.70918 | 29983 ft | 495 kts | 353° |
| 2026-05-06 12:55 | 46.07525 | 6.70453 | 29959 ft | 493 kts | 353° |
| 2026-05-06 12:56 | 46.14412 | 6.70996 | 29944 ft | 501 kts | 8° |
| 2026-05-06 12:56 | 46.21151 | 6.73708 | 29943 ft | 502 kts | 14° |
| 2026-05-06 12:57 | 46.27833 | 6.76541 | 29938 ft | 500 kts | 14° |
| 2026-05-06 12:57 | 46.34512 | 6.79364 | 29930 ft | 500 kts | 14° |
| 2026-05-06 12:58 | 46.41179 | 6.82187 | 29933 ft | 498 kts | 14° |
| 2026-05-06 12:58 | 46.47825 | 6.85020 | 29933 ft | 497 kts | 14° |
| 2026-05-06 12:59 | 46.54198 | 6.88877 | 29879 ft | 501 kts | 31° |
| 2026-05-06 12:59 | 46.59558 | 6.95309 | 29880 ft | 501 kts | 50° |
| 2026-05-06 13:00 | 46.63976 | 7.03158 | 29880 ft | 502 kts | 53° |
| 2026-05-06 13:00 | 46.68371 | 7.11070 | 29886 ft | 503 kts | 53° |
| 2026-05-06 13:01 | 46.72772 | 7.19018 | 29888 ft | 504 kts | 53° |
| 2026-05-06 13:01 | 46.77160 | 7.26988 | 29912 ft | 503 kts | 53° |
| 2026-05-06 13:02 | 46.81520 | 7.34934 | 29871 ft | 500 kts | 53° |
| 2026-05-06 13:02 | 46.85804 | 7.42758 | 29874 ft | 500 kts | 54° |
| 2026-05-06 13:03 | 46.90153 | 7.50722 | 29864 ft | 501 kts | 54° |
| 2026-05-06 13:03 | 46.94453 | 7.58652 | 29872 ft | 501 kts | 54° |
| 2026-05-06 13:04 | 46.98770 | 7.66650 | 29881 ft | 500 kts | 54° |
| 2026-05-06 13:04 | 47.03086 | 7.74645 | 29871 ft | 499 kts | 54° |
| 2026-05-06 13:05 | 47.07395 | 7.82625 | 29876 ft | 499 kts | 54° |
| 2026-05-06 13:05 | 47.11688 | 7.90613 | 29874 ft | 498 kts | 54° |
| 2026-05-06 13:06 | 47.15620 | 7.98939 | 29876 ft | 494 kts | 61° |
| 2026-05-06 13:06 | 47.19249 | 8.07493 | 29871 ft | 492 kts | 61° |
| 2026-05-06 13:07 | 47.22881 | 8.16027 | 29869 ft | 491 kts | 61° |
| 2026-05-06 13:07 | 47.26489 | 8.24511 | 29856 ft | 491 kts | 61° |
| 2026-05-06 13:08 | 47.30554 | 8.32626 | 29819 ft | 496 kts | 47° |
| 2026-05-06 13:08 | 47.35996 | 8.38916 | 29818 ft | 501 kts | 33° |
| 2026-05-06 13:09 | 47.41851 | 8.44536 | 29836 ft | 503 kts | 33° |
| 2026-05-06 13:09 | 47.47700 | 8.50192 | 29841 ft | 504 kts | 33° |
| 2026-05-06 13:10 | 47.53558 | 8.55902 | 29859 ft | 503 kts | 34° |
| 2026-05-06 13:10 | 47.59367 | 8.61576 | 29866 ft | 503 kts | 34° |
| 2026-05-06 13:11 | 47.65204 | 8.67281 | 29871 ft | 503 kts | 34° |
| 2026-05-06 13:11 | 47.71038 | 8.73000 | 29886 ft | 501 kts | 34° |
| 2026-05-06 13:12 | 47.76847 | 8.78716 | 29871 ft | 500 kts | 34° |
| 2026-05-06 13:12 | 47.82638 | 8.84415 | 29837 ft | 496 kts | 34° |
| 2026-05-06 13:13 | 47.88378 | 8.90074 | 29830 ft | 495 kts | 35° |
| 2026-05-06 13:13 | 47.94120 | 8.95771 | 29784 ft | 495 kts | 34° |
| 2026-05-06 13:14 | 47.99871 | 9.01491 | 29797 ft | 498 kts | 34° |
| 2026-05-06 13:14 | 48.05640 | 9.07234 | 29792 ft | 499 kts | 34° |
| 2026-05-06 13:15 | 48.10438 | 9.12023 | 29826 ft | 499 kts | 34° |
| 2026-05-06 13:15 | 48.16458 | 9.17015 | 29830 ft | 497 kts | 20° |
| 2026-05-06 13:15 | 48.20901 | 9.18892 | 29826 ft | 494 kts | 8° |
| 2026-05-06 13:16 | 48.23150 | 9.19356 | 29823 ft | 492 kts | 4° |
| 2026-05-06 13:16 | 48.29957 | 9.20481 | 29831 ft | 492 kts | 5° |
| 2026-05-06 13:17 | 48.36747 | 9.21641 | 29831 ft | 490 kts | 5° |
| 2026-05-06 13:17 | 48.43526 | 9.22800 | 29831 ft | 488 kts | 5° |
| 2026-05-06 13:18 | 48.50274 | 9.23943 | 29822 ft | 488 kts | 5° |
| 2026-05-06 13:18 | 48.56973 | 9.25081 | 29797 ft | 487 kts | 5° |
| 2026-05-06 13:19 | 48.63707 | 9.26226 | 29790 ft | 487 kts | 5° |
| 2026-05-06 13:19 | 48.70444 | 9.27284 | 29791 ft | 487 kts | 4° |
| 2026-05-06 13:20 | 48.77185 | 9.28282 | 29786 ft | 487 kts | 3° |
| 2026-05-06 13:20 | 48.83936 | 9.29283 | 29790 ft | 486 kts | 3° |
| 2026-05-06 13:21 | 48.90668 | 9.30318 | 29795 ft | 486 kts | 4° |
| 2026-05-06 13:21 | 48.97409 | 9.31369 | 29817 ft | 485 kts | 3° |
| 2026-05-06 13:22 | 49.04110 | 9.32404 | 29828 ft | 483 kts | 3° |
| 2026-05-06 13:22 | 49.10761 | 9.33424 | 29825 ft | 481 kts | 3° |
| 2026-05-06 13:23 | 49.17420 | 9.34455 | 29826 ft | 480 kts | 4° |
| 2026-05-06 13:23 | 49.24040 | 9.35491 | 29825 ft | 478 kts | 4° |
| 2026-05-06 13:24 | 49.30661 | 9.36526 | 29840 ft | 475 kts | 5° |
| 2026-05-06 13:24 | 49.37160 | 9.37535 | 29836 ft | 472 kts | 5° |
| 2026-05-06 13:25 | 49.43687 | 9.38565 | 29821 ft | 471 kts | 5° |
| 2026-05-06 13:25 | 49.50197 | 9.39591 | 29798 ft | 470 kts | 5° |
| 2026-05-06 13:26 | 49.56695 | 9.40617 | 29802 ft | 469 kts | 5° |
| 2026-05-06 13:26 | 49.63224 | 9.41649 | 29791 ft | 470 kts | 5° |
| 2026-05-06 13:27 | 49.69731 | 9.42689 | 29773 ft | 471 kts | 5° |
| 2026-05-06 13:27 | 49.76257 | 9.43737 | 29772 ft | 471 kts | 5° |
| 2026-05-06 13:28 | 49.82778 | 9.44789 | 29769 ft | 472 kts | 5° |
| 2026-05-06 13:28 | 49.89320 | 9.45845 | 29753 ft | 473 kts | 5° |
| 2026-05-06 13:29 | 49.95879 | 9.46904 | 29748 ft | 473 kts | 5° |
| 2026-05-06 13:29 | 50.02428 | 9.47963 | 29754 ft | 474 kts | 5° |
| 2026-05-06 13:30 | 50.08985 | 9.49009 | 29751 ft | 474 kts | 4° |
| 2026-05-06 13:30 | 50.15521 | 9.50143 | 29745 ft | 475 kts | 5° |
| 2026-05-06 13:31 | 50.22087 | 9.51336 | 29745 ft | 475 kts | 5° |
| 2026-05-06 13:31 | 50.28659 | 9.52523 | 29755 ft | 475 kts | 4° |
| 2026-05-06 13:32 | 50.35228 | 9.53684 | 29754 ft | 474 kts | 4° |
| 2026-05-06 13:32 | 50.41785 | 9.54839 | 29750 ft | 474 kts | 4° |
| 2026-05-06 13:33 | 50.48320 | 9.56012 | 29755 ft | 474 kts | 4° |
| 2026-05-06 13:33 | 50.54850 | 9.57183 | 29765 ft | 472 kts | 4° |
| 2026-05-06 13:34 | 50.61343 | 9.58335 | 29754 ft | 471 kts | 4° |
| 2026-05-06 13:34 | 50.67857 | 9.59502 | 29752 ft | 471 kts | 4° |
| 2026-05-06 13:35 | 50.74346 | 9.60681 | 29752 ft | 471 kts | 4° |
| 2026-05-06 13:35 | 50.80883 | 9.61870 | 29745 ft | 470 kts | 4° |
| 2026-05-06 13:36 | 50.87400 | 9.63045 | 29744 ft | 470 kts | 4° |
| 2026-05-06 13:36 | 50.93900 | 9.64229 | 29750 ft | 470 kts | 4° |
| 2026-05-06 13:37 | 51.00375 | 9.65411 | 29741 ft | 471 kts | 4° |
| 2026-05-06 13:37 | 51.06886 | 9.66604 | 29742 ft | 471 kts | 4° |
| 2026-05-06 13:38 | 51.13386 | 9.67791 | 29747 ft | 471 kts | 4° |
| 2026-05-06 13:38 | 51.19907 | 9.68986 | 29763 ft | 471 kts | 4° |
| 2026-05-06 13:39 | 51.26429 | 9.70126 | 29766 ft | 471 kts | 3° |
| 2026-05-06 13:39 | 51.32947 | 9.71155 | 29775 ft | 471 kts | 3° |
| 2026-05-06 13:40 | 51.39468 | 9.72178 | 29774 ft | 471 kts | 3° |
| 2026-05-06 13:40 | 51.45994 | 9.73229 | 29797 ft | 470 kts | 4° |
| 2026-05-06 13:41 | 51.52489 | 9.74365 | 29797 ft | 469 kts | 5° |
| 2026-05-06 13:41 | 51.58960 | 9.75629 | 29790 ft | 468 kts | 5° |
| 2026-05-06 13:42 | 51.65416 | 9.76905 | 29806 ft | 468 kts | 5° |
| 2026-05-06 13:42 | 51.71873 | 9.78131 | 29812 ft | 465 kts | 5° |
| 2026-05-06 13:43 | 51.78308 | 9.79334 | 29811 ft | 464 kts | 5° |
| 2026-05-06 13:43 | 51.84721 | 9.80553 | 29806 ft | 463 kts | 5° |
| 2026-05-06 13:44 | 51.91122 | 9.81782 | 29827 ft | 462 kts | 6° |
| 2026-05-06 13:44 | 51.97436 | 9.83014 | 29641 ft | 458 kts | 6° |
| 2026-05-06 13:44 | 52.00593 | 9.83632 | 29353 ft | 457 kts | 6° |
| 2026-05-06 13:45 | 52.03759 | 9.84250 | 29066 ft | 457 kts | 6° |
| 2026-05-06 13:45 | 52.10082 | 9.85476 | 28519 ft | 456 kts | 6° |
| 2026-05-06 13:45 | 52.13224 | 9.86087 | 28249 ft | 456 kts | 6° |
| 2026-05-06 13:46 | 52.16376 | 9.86700 | 27980 ft | 455 kts | 6° |
| 2026-05-06 13:46 | 52.19526 | 9.87317 | 27706 ft | 456 kts | 6° |
| 2026-05-06 13:46 | 52.22671 | 9.87938 | 27448 ft | 456 kts | 6° |
| 2026-05-06 13:46 | 52.25804 | 9.88749 | 27177 ft | 455 kts | 13° |
| 2026-05-06 13:47 | 52.28856 | 9.90065 | 26916 ft | 453 kts | 15° |
| 2026-05-06 13:47 | 52.31900 | 9.91409 | 26654 ft | 452 kts | 14° |
| 2026-05-06 13:47 | 52.34924 | 9.92739 | 26395 ft | 451 kts | 15° |
| 2026-05-06 13:47 | 52.37945 | 9.94067 | 26141 ft | 449 kts | 15° |
| 2026-05-06 13:48 | 52.40974 | 9.95399 | 25887 ft | 449 kts | 15° |
| 2026-05-06 13:48 | 52.43975 | 9.96721 | 25636 ft | 447 kts | 16° |
| 2026-05-06 13:48 | 52.46984 | 9.98049 | 25386 ft | 446 kts | 15° |
| 2026-05-06 13:48 | 52.49976 | 9.99373 | 25138 ft | 444 kts | 15° |
| 2026-05-06 13:49 | 52.52912 | 10.00679 | 24887 ft | 430 kts | 15° |
| 2026-05-06 13:49 | 52.55764 | 10.01950 | 24642 ft | 418 kts | 15° |
| 2026-05-06 13:49 | 52.58526 | 10.03183 | 24391 ft | 406 kts | 16° |
| 2026-05-06 13:49 | 52.61216 | 10.04380 | 24156 ft | 395 kts | 16° |
| 2026-05-06 13:50 | 52.63836 | 10.05547 | 23924 ft | 386 kts | 16° |
| 2026-05-06 13:50 | 52.66396 | 10.06691 | 23687 ft | 377 kts | 15° |
| 2026-05-06 13:50 | 52.68907 | 10.07816 | 23448 ft | 371 kts | 15° |
| 2026-05-06 13:50 | 52.71391 | 10.08929 | 23174 ft | 366 kts | 15° |
| 2026-05-06 13:51 | 52.73818 | 10.10019 | 22893 ft | 364 kts | 16° |
| 2026-05-06 13:51 | 52.76297 | 10.11096 | 22612 ft | 363 kts | 12° |
| 2026-05-06 13:51 | 52.78751 | 10.11726 | 22342 ft | 361 kts | 5° |
| 2026-05-06 13:51 | 52.81269 | 10.11886 | 22077 ft | 361 kts | 1° |
| 2026-05-06 13:52 | 52.83770 | 10.11962 | 21808 ft | 359 kts | 0° |
| 2026-05-06 13:52 | 52.86252 | 10.12043 | 21469 ft | 355 kts | 0° |
| 2026-05-06 13:52 | 52.88720 | 10.12128 | 20991 ft | 354 kts | 0° |
| 2026-05-06 13:52 | 52.91183 | 10.12212 | 20524 ft | 353 kts | 0° |
| 2026-05-06 13:53 | 52.93641 | 10.12292 | 20060 ft | 352 kts | 0° |
| 2026-05-06 13:53 | 52.96094 | 10.12373 | 19608 ft | 351 kts | 0° |
| 2026-05-06 13:53 | 52.98531 | 10.12454 | 19178 ft | 350 kts | 0° |
| 2026-05-06 13:53 | 53.00962 | 10.12535 | 18735 ft | 350 kts | 0° |
| 2026-05-06 13:54 | 53.03382 | 10.12616 | 18351 ft | 348 kts | 360° |
| 2026-05-06 13:54 | 53.05809 | 10.12697 | 17907 ft | 348 kts | 360° |
| 2026-05-06 13:54 | 53.08225 | 10.12776 | 17453 ft | 346 kts | 360° |
| 2026-05-06 13:54 | 53.10618 | 10.12856 | 17144 ft | 341 kts | 0° |
| 2026-05-06 13:55 | 53.13002 | 10.12937 | 16665 ft | 342 kts | 0° |
| 2026-05-06 13:55 | 53.15369 | 10.13017 | 16357 ft | 338 kts | 0° |
| 2026-05-06 13:55 | 53.17713 | 10.13093 | 15976 ft | 337 kts | 0° |
| 2026-05-06 13:55 | 53.20020 | 10.13169 | 15622 ft | 335 kts | 0° |
| 2026-05-06 13:56 | 53.22342 | 10.13243 | 15266 ft | 333 kts | 0° |
| 2026-05-06 13:56 | 53.24664 | 10.13318 | 14915 ft | 331 kts | 0° |
| 2026-05-06 13:56 | 53.26967 | 10.13397 | 14573 ft | 330 kts | 0° |
| 2026-05-06 13:56 | 53.29256 | 10.13477 | 14230 ft | 328 kts | 0° |
| 2026-05-06 13:57 | 53.31535 | 10.13551 | 13909 ft | 326 kts | 2° |
| 2026-05-06 13:57 | 53.33801 | 10.13623 | 13624 ft | 322 kts | 2° |
| 2026-05-06 13:57 | 53.36034 | 10.13676 | 13274 ft | 320 kts | 359° |
| 2026-05-06 13:57 | 53.38226 | 10.13128 | 12852 ft | 320 kts | 344° |
| 2026-05-06 13:58 | 53.40235 | 10.11356 | 11992 ft | 335 kts | 320° |
| 2026-05-06 13:58 | 53.41741 | 10.08316 | 11098 ft | 348 kts | 299° |
| 2026-05-06 13:58 | 53.42467 | 10.05877 | 10489 ft | 356 kts | 295° |
| 2026-05-06 13:58 | 53.43800 | 10.00886 | 10095 ft | 345 kts | 294° |
| 2026-05-06 13:59 | 53.44442 | 9.98430 | 10008 ft | 336 kts | 294° |
| 2026-05-06 13:59 | 53.45357 | 9.94918 | 9887 ft | 322 kts | 294° |
| 2026-05-06 13:59 | 53.46236 | 9.91531 | 9736 ft | 311 kts | 294° |
| 2026-05-06 13:59 | 53.47108 | 9.88136 | 8898 ft | 323 kts | 294° |
| 2026-05-06 14:00 | 53.47967 | 9.84772 | 8769 ft | 309 kts | 294° |
| 2026-05-06 14:00 | 53.48803 | 9.81484 | 8638 ft | 298 kts | 294° |
| 2026-05-06 14:00 | 53.49616 | 9.78284 | 8214 ft | 301 kts | 294° |
| 2026-05-06 14:00 | 53.50381 | 9.75086 | 8081 ft | 288 kts | 292° |
| 2026-05-06 14:01 | 53.51065 | 9.71980 | 7876 ft | 278 kts | 291° |
| 2026-05-06 14:01 | 53.51761 | 9.68900 | 7417 ft | 280 kts | 292° |
| 2026-05-06 14:01 | 53.52478 | 9.65789 | 6666 ft | 293 kts | 292° |
| 2026-05-06 14:01 | 53.53209 | 9.62522 | 5837 ft | 311 kts | 288° |
| 2026-05-06 14:02 | 53.53413 | 9.58846 | 5188 ft | 321 kts | 261° |
| 2026-05-06 14:02 | 53.52684 | 9.55381 | 4919 ft | 315 kts | 238° |
| 2026-05-06 14:02 | 53.51497 | 9.52291 | 4633 ft | 313 kts | 234° |
| 2026-05-06 14:02 | 53.50276 | 9.49305 | 4327 ft | 306 kts | 234° |
| 2026-05-06 14:03 | 53.48963 | 9.46587 | 4035 ft | 293 kts | 217° |
| 2026-05-06 14:03 | 53.47225 | 9.45068 | 3789 ft | 277 kts | 189° |
| 2026-05-06 14:03 | 53.45368 | 9.45061 | 3559 ft | 263 kts | 160° |
| 2026-05-06 14:03 | 53.43755 | 9.46358 | 3323 ft | 253 kts | 138° |
| 2026-05-06 14:04 | 53.42564 | 9.48429 | 3094 ft | 244 kts | 118° |
| 2026-05-06 14:04 | 53.41883 | 9.50982 | 2978 ft | 238 kts | 100° |
| 2026-05-06 14:04 | 53.41696 | 9.53706 | 2975 ft | 233 kts | 91° |
| 2026-05-06 14:04 | 53.41907 | 9.56394 | 2977 ft | 234 kts | 64° |
| 2026-05-06 14:05 | 53.42890 | 9.58579 | 2976 ft | 236 kts | 50° |
| 2026-05-06 14:05 | 53.43974 | 9.60607 | 2995 ft | 234 kts | 51° |
| 2026-05-06 14:05 | 53.45046 | 9.62697 | 2995 ft | 237 kts | 51° |
| 2026-05-06 14:05 | 53.46091 | 9.64784 | 3001 ft | 235 kts | 52° |
| 2026-05-06 14:06 | 53.47143 | 9.66891 | 3003 ft | 236 kts | 52° |
| 2026-05-06 14:06 | 53.48205 | 9.69013 | 3005 ft | 238 kts | 51° |
| 2026-05-06 14:06 | 53.49272 | 9.71144 | 3004 ft | 238 kts | 51° |
| 2026-05-06 14:06 | 53.50337 | 9.73273 | 3009 ft | 240 kts | 51° |
| 2026-05-06 14:07 | 53.51409 | 9.75420 | 3007 ft | 239 kts | 51° |
| 2026-05-06 14:07 | 53.52478 | 9.77560 | 2957 ft | 239 kts | 51° |
| 2026-05-06 14:07 | 53.53540 | 9.79691 | 2703 ft | 236 kts | 51° |
| 2026-05-06 14:07 | 53.54590 | 9.81797 | 2408 ft | 233 kts | 51° |
| 2026-05-06 14:08 | 53.55591 | 9.83808 | 2095 ft | 213 kts | 51° |
| 2026-05-06 14:08 | 53.56499 | 9.85634 | 1812 ft | 192 kts | 50° |
| 2026-05-06 14:08 | 53.57305 | 9.87257 | 1555 ft | 172 kts | 50° |
| 2026-05-06 14:08 | 53.58036 | 9.88728 | 1360 ft | 156 kts | 50° |
| 2026-05-06 14:09 | 53.58688 | 9.90043 | 1132 ft | 144 kts | 49° |
| 2026-05-06 14:09 | 53.59326 | 9.91328 | 934 ft | 138 kts | 50° |
| 2026-05-06 14:09 | 53.59923 | 9.92531 | 745 ft | 130 kts | 51° |
| 2026-05-06 14:09 | 53.60493 | 9.93682 | 553 ft | 127 kts | 50° |
| 2026-05-06 14:10 | 53.61055 | 9.94816 | 377 ft | 124 kts | 50° |
| 2026-05-06 14:10 | 53.61604 | 9.95925 | 206 ft | 125 kts | 50° |
| 2026-05-06 14:10 | 53.62151 | 9.97049 | 60 ft | 125 kts | 50° |
| 2026-05-06 14:10 | 53.62671 | 9.98118 | 44 ft | 96 kts | 50° |
| 2026-05-06 14:11 | 53.62932 | 9.98623 | 43 ft | 37 kts | 49° |
| 2026-05-06 14:11 | 53.63065 | 9.98904 | 44 ft | 23 kts | 62° |
| 2026-05-06 14:11 | 53.63095 | 9.99096 | 45 ft | 16 kts | 82° |
| 2026-05-06 14:11 | 53.63093 | 9.99147 | 44 ft | 1 kts | 95° |
| 2026-05-06 14:12 | 53.63093 | 9.99152 | 44 ft | 0 kts | 95° |
| 2026-05-06 14:12 | 53.63093 | 9.99154 | 44 ft | 1 kts | 95° |
| 2026-05-06 14:12 | 53.63090 | 9.99205 | 44 ft | 10 kts | 95° |
| 2026-05-06 14:13 | 53.63093 | 9.99342 | 45 ft | 13 kts | 78° |
| 2026-05-06 14:13 | 53.63134 | 9.99489 | 45 ft | 15 kts | 57° |
| 2026-05-06 14:13 | 53.63188 | 9.99602 | 44 ft | 6 kts | 51° |
| 2026-05-06 14:13 | 53.63199 | 9.99624 | 44 ft | 2 kts | 51° |
| 2026-05-06 14:14 | 53.63210 | 9.99648 | 45 ft | 3 kts | 51° |
| 2026-05-06 14:14 | 53.63215 | 9.99661 | 45 ft | 0 kts | 56° |
| 2026-05-06 14:15 | 53.63223 | 9.99688 | 45 ft | 10 kts | 69° |
| 2026-05-06 14:15 | 53.63177 | 9.99803 | 45 ft | 11 kts | 153° |
| 2026-05-06 14:15 | 53.63113 | 9.99859 | 45 ft | 10 kts | 152° |
| 2026-05-06 14:16 | 53.63070 | 9.99897 | 45 ft | 3 kts | 152° |
| 2026-05-06 14:16 | 53.63056 | 9.99909 | 45 ft | 3 kts | 152° |
| 2026-05-06 14:16 | 53.63040 | 9.99923 | 45 ft | 0 kts | 152° |
| 2026-05-06 14:17 | 53.63037 | 9.99926 | 45 ft | 0 kts | 152° |
| 2026-05-06 14:17 | 53.63036 | 9.99926 | 45 ft | 0 kts | 152° |
| 2026-05-06 14:17 | 53.63024 | 9.99937 | 45 ft | 2 kts | 152° |
| 2026-05-06 14:18 | 53.63014 | 9.99946 | 45 ft | 1 kts | 152° |
| 2026-05-06 14:18 | 53.63006 | 9.99953 | 45 ft | 3 kts | 152° |
| 2026-05-06 14:18 | 53.62947 | 10.00001 | 44 ft | 13 kts | 155° |
| 2026-05-06 14:18 | 53.62871 | 10.00057 | 45 ft | 11 kts | 156° |
| 2026-05-06 14:19 | 53.62803 | 10.00108 | 46 ft | 8 kts | 154° |
| 2026-05-06 14:19 | 53.62781 | 10.00137 | 46 ft | 3 kts | 115° |
| 2026-05-06 14:19 | 53.62790 | 10.00184 | 46 ft | 5 kts | 66° |
| 2026-05-06 14:19 | 53.62805 | 10.00236 | 45 ft | 0 kts | 62° |
| 2026-05-06 14:20 | 53.62806 | 10.00240 | 45 ft | 2 kts | 62° |
| 2026-05-06 14:20 | 53.62807 | 10.00241 | 45 ft | 0 kts | 62° |